Time;durP1;ratioP1;P1;durP2;ratioP2;P2;SDS_P1;SDS_P2;PMS_P1;PMS_P2;Temp;Humidity;BMP_temperature;BMP_pressure;BME280_temperature;BME280_humidity;BME280_pressure;Samples;Min_cycle;Max_cycle;Signal;HPM_P1;HPM_P2
2022/11/29 00:02:52;;;;;;;74.43;38.73;;;;;;;;;;6247669;28;20478;-78
2022/11/29 00:05:52;;;;;;;74.03;35.27;;;;;;;;;;6246033;28;20032;-78
2022/11/29 00:08:53;;;;;;;65.73;33.90;;;;;;;;;;6248384;28;20006;-77
2022/11/29 00:12:11;;;;;;;67.50;31.80;;;;;;;;;;6247960;28;20428;-77
2022/11/29 00:15:11;;;;;;;70.28;32.58;;;;;;;;;;6248768;28;20029;-77
2022/11/29 00:18:12;;;;;;;69.57;32.70;;;;;;;;;;6238164;28;20391;-77
2022/11/29 00:21:12;;;;;;;67.73;33.43;;;;;;;;;;6239976;28;20044;-77
2022/11/29 00:24:13;;;;;;;73.47;35.23;;;;;;;;;;6244219;28;20049;-77
2022/11/29 00:27:13;;;;;;;62.43;30.73;;;;;;;;;;6245600;28;20026;-77
2022/11/29 00:30:13;;;;;;;60.13;33.13;;;;;;;;;;6237506;28;20079;-77
2022/11/29 00:33:13;;;;;;;60.60;30.23;;;;;;;;;;6248973;28;20041;-77
2022/11/29 00:36:14;;;;;;;63.17;28.90;;;;;;;;;;6247922;28;20018;-77
2022/11/29 00:39:15;;;;;;;59.50;30.60;;;;;;;;;;6247315;28;20032;-77
2022/11/29 00:42:15;;;;;;;64.40;32.50;;;;;;;;;;6245755;28;20037;-77
2022/11/29 00:45:15;;;;;;;67.03;36.57;;;;;;;;;;6247518;28;20068;-77
2022/11/29 00:48:15;;;;;;;76.20;38.13;;;;;;;;;;6247302;28;20454;-77
2022/11/29 00:51:16;;;;;;;67.60;35.50;;;;;;;;;;6238729;28;20025;-77
2022/11/29 00:54:16;;;;;;;68.80;30.47;;;;;;;;;;6246271;28;20030;-77
2022/11/29 00:57:16;;;;;;;65.20;30.10;;;;;;;;;;6247939;28;20036;-76
2022/11/29 01:00:16;;;;;;;62.10;30.10;;;;;;;;;;6230743;28;20390;-77
2022/11/29 01:03:16;;;;;;;72.17;33.50;;;;;;;;;;6238137;28;20056;-77
2022/11/29 01:06:17;;;;;;;61.60;32.47;;;;;;;;;;6242587;28;20033;-75
2022/11/29 01:09:17;;;;;;;69.87;33.67;;;;;;;;;;6245562;28;20018;-75
2022/11/29 01:12:17;;;;;;;64.83;30.57;;;;;;;;;;6247585;28;20021;-76
2022/11/29 01:15:18;;;;;;;62.85;28.55;;;;;;;;;;6246395;28;20025;-75
2022/11/29 01:18:18;;;;;;;66.93;32.43;;;;;;;;;;6245775;28;20112;-75
2022/11/29 01:21:19;;;;;;;56.50;27.98;;;;;;;;;;6241995;28;20041;-77
2022/11/29 01:24:21;;;;;;;63.45;34.35;;;;;;;;;;6243744;28;20041;-76
2022/11/29 01:27:21;;;;;;;71.30;34.50;;;;;;;;;;6247235;28;20005;-76
2022/11/29 01:30:21;;;;;;;82.73;40.53;;;;;;;;;;6244841;28;20432;-76
2022/11/29 01:33:22;;;;;;;67.33;37.90;;;;;;;;;;6245889;28;20026;-76
2022/11/29 01:36:22;;;;;;;71.93;35.57;;;;;;;;;;6231934;28;20025;-76
2022/11/29 01:39:22;;;;;;;60.97;27.13;;;;;;;;;;6244397;28;20029;-76
2022/11/29 01:42:23;;;;;;;71.93;30.17;;;;;;;;;;6246735;28;20395;-76
2022/11/29 01:45:25;;;;;;;65.10;28.03;;;;;;;;;;6241512;28;20093;-76
2022/11/29 01:48:26;;;;;;;71.28;36.25;;;;;;;;;;6235888;28;20087;-76
2022/11/29 01:51:27;;;;;;;69.85;34.10;;;;;;;;;;6242026;28;20076;-77
2022/11/29 01:54:28;;;;;;;62.70;32.27;;;;;;;;;;6241564;28;20489;-77
2022/11/29 01:57:29;;;;;;;75.77;34.67;;;;;;;;;;6229973;28;20256;-77
2022/11/29 02:00:30;;;;;;;59.78;29.38;;;;;;;;;;6244240;28;20045;-77
2022/11/29 02:03:30;;;;;;;61.10;27.17;;;;;;;;;;6240048;28;20020;-77
2022/11/29 02:06:31;;;;;;;54.37;28.23;;;;;;;;;;6235347;28;20024;-77
2022/11/29 02:09:31;;;;;;;59.27;28.47;;;;;;;;;;6242471;28;20395;-76
2022/11/29 02:12:41;;;;;;;64.07;27.40;;;;;;;;;;6241980;28;20021;-77
2022/11/29 02:15:44;;;;;;;61.25;27.48;;;;;;;;;;6240949;28;20031;-77
2022/11/29 02:19:14;;;;;;;63.90;28.65;;;;;;;;;;6237674;28;20024;-77
2022/11/29 02:22:35;;;;;;;64.05;28.48;;;;;;;;;;6230882;28;20033;-77
2022/11/29 02:25:56;;;;;;;61.83;29.60;;;;;;;;;;6246656;28;20120;-76
2022/11/29 02:28:56;;;;;;;47.10;23.95;;;;;;;;;;6241713;28;20032;-77
2022/11/29 02:32:05;;;;;;;68.72;30.35;;;;;;;;;;6237635;28;20029;-77
2022/11/29 02:35:25;;;;;;;64.05;28.92;;;;;;;;;;6239846;28;20272;-77
2022/11/29 02:38:28;;;;;;;75.75;31.23;;;;;;;;;;6240219;28;20160;-77
2022/11/29 02:41:40;;;;;;;60.15;30.13;;;;;;;;;;6245030;28;20032;-77
2022/11/29 02:44:52;;;;;;;65.63;31.42;;;;;;;;;;6250426;28;20049;-77
2022/11/29 02:47:52;;;;;;;;;;;;;;;;;;6249122;28;20044;-77
2022/11/29 02:51:00;;;;;;;58.97;29.15;;;;;;;;;;6244598;28;19905;-77
2022/11/29 02:54:00;;;;;;;66.78;30.10;;;;;;;;;;6243111;28;20068;-77
2022/11/29 02:57:18;;;;;;;81.60;32.35;;;;;;;;;;6244950;28;20025;-77
2022/11/29 03:00:19;;;;;;;79.93;33.80;;;;;;;;;;6246714;28;20745;-77
2022/11/29 03:03:25;;;;;;;67.28;29.65;;;;;;;;;;6249458;28;20048;-77
2022/11/29 03:06:43;;;;;;;64.95;31.13;;;;;;;;;;6245654;28;20018;-77
2022/11/29 03:09:52;;;;;;;93.22;37.55;;;;;;;;;;6248167;28;20055;-77
2022/11/29 03:12:53;;;;;;;81.32;39.80;;;;;;;;;;6249229;28;20021;-77
2022/11/29 03:15:58;;;;;;;69.97;35.00;;;;;;;;;;6246611;28;20532;-77
2022/11/29 03:19:04;;;;;;;102.88;45.72;;;;;;;;;;6247667;28;20021;-77
2022/11/29 03:22:20;;;;;;;117.03;49.63;;;;;;;;;;6245299;28;20179;-76
2022/11/29 03:25:25;;;;;;;128.52;57.38;;;;;;;;;;6240722;28;20026;-76
2022/11/29 03:28:31;;;;;;;134.65;59.72;;;;;;;;;;6245929;28;20013;-76
2022/11/29 03:31:42;;;;;;;137.20;63.25;;;;;;;;;;6244336;28;20083;-77
2022/11/29 03:34:55;;;;;;;121.07;51.42;;;;;;;;;;6245437;28;20021;-77
2022/11/29 03:37:58;;;;;;;115.13;49.25;;;;;;;;;;6249067;28;20029;-77
2022/11/29 03:41:06;;;;;;;100.47;44.83;;;;;;;;;;6247035;28;20045;-77
2022/11/29 03:44:12;;;;;;;90.28;42.83;;;;;;;;;;6247973;28;20013;-77
2022/11/29 03:47:14;;;;;;;109.90;50.63;;;;;;;;;;6246942;28;20009;-77
2022/11/29 03:50:21;;;;;;;117.80;52.00;;;;;;;;;;6243379;28;20030;-77
2022/11/29 03:53:27;;;;;;;106.97;48.90;;;;;;;;;;6248811;28;20111;-76
2022/11/29 03:56:32;;;;;;;92.80;44.90;;;;;;;;;;6248561;28;20104;-77
2022/11/29 03:59:32;;;;;;;104.95;48.65;;;;;;;;;;6248000;28;20045;-76
2022/11/29 04:02:51;;;;;;;99.20;48.03;;;;;;;;;;6239236;28;20393;-78
2022/11/29 04:06:02;;;;;;;78.15;39.97;;;;;;;;;;6243056;28;20021;-77
2022/11/29 04:09:06;;;;;;;83.93;40.38;;;;;;;;;;6240759;28;20432;-77
2022/11/29 04:12:24;;;;;;;68.38;33.25;;;;;;;;;;6250200;28;20021;-78
2022/11/29 04:15:45;;;;;;;73.88;37.50;;;;;;;;;;6237748;28;20104;-77
2022/11/29 04:19:07;;;;;;;65.93;33.17;;;;;;;;;;6247577;28;20024;-77
2022/11/29 04:22:20;;;;;;;80.28;35.85;;;;;;;;;;6242648;28;20026;-77
2022/11/29 04:25:38;;;;;;;72.38;33.15;;;;;;;;;;6248227;28;20024;-78
2022/11/29 04:28:47;;;;;;;71.97;34.42;;;;;;;;;;6246736;28;20064;-77
2022/11/29 04:32:06;;;;;;;86.45;42.40;;;;;;;;;;6247598;28;20053;-78
2022/11/29 04:35:13;;;;;;;67.45;36.90;;;;;;;;;;6243559;28;20021;-78
2022/11/29 04:38:31;;;;;;;75.57;35.30;;;;;;;;;;6239983;28;20420;-78
2022/11/29 04:41:42;;;;;;;67.93;34.78;;;;;;;;;;6242753;28;20049;-78
2022/11/29 04:45:01;;;;;;;72.03;33.90;;;;;;;;;;6241989;28;20188;-77
2022/11/29 04:48:20;;;;;;;98.65;47.83;;;;;;;;;;6236659;28;20045;-76
2022/11/29 04:51:21;;;;;;;102.05;45.67;;;;;;;;;;6243274;28;20022;-78
2022/11/29 04:54:32;;;;;;;93.30;45.57;;;;;;;;;;6240691;28;20021;-77
2022/11/29 04:57:46;;;;;;;58.13;29.00;;;;;;;;;;6245108;28;20477;-78
2022/11/29 05:01:15;;;;;;;69.50;34.65;;;;;;;;;;6242997;28;20040;-78
2022/11/29 05:04:34;;;;;;;75.13;34.80;;;;;;;;;;6224277;28;20195;-78
2022/11/29 05:07:42;;;;;;;70.75;32.40;;;;;;;;;;6245479;28;20026;-78
2022/11/29 05:10:58;;;;;;;70.35;31.63;;;;;;;;;;6241911;28;20013;-78
2022/11/29 05:14:01;;;;;;;63.10;32.03;;;;;;;;;;6240525;28;20027;-78
2022/11/29 05:17:13;;;;;;;66.75;32.78;;;;;;;;;;6247276;28;20013;-77
2022/11/29 05:20:21;;;;;;;64.90;29.80;;;;;;;;;;6245329;28;20021;-77
2022/11/29 05:23:35;;;;;;;54.58;28.20;;;;;;;;;;6242716;28;20446;-78
2022/11/29 05:26:55;;;;;;;50.53;27.13;;;;;;;;;;6242848;28;20017;-78
2022/11/29 05:30:05;;;;;;;59.90;28.27;;;;;;;;;;6220096;28;20036;-78
2022/11/29 05:33:19;;;;;;;51.88;27.05;;;;;;;;;;6241596;28;20017;-78
2022/11/29 05:36:20;;;;;;;62.05;26.95;;;;;;;;;;6242221;28;20017;-78
2022/11/29 05:39:32;;;;;;;59.30;27.27;;;;;;;;;;6238099;28;20091;-78
2022/11/29 05:43:01;;;;;;;65.20;28.42;;;;;;;;;;6242915;28;20763;-78
2022/11/29 05:46:06;;;;;;;51.45;26.48;;;;;;;;;;6247479;28;20029;-78
2022/11/29 05:49:19;;;;;;;50.70;27.08;;;;;;;;;;6240045;28;20020;-78
2022/11/29 05:52:19;;;;;;;66.15;30.13;;;;;;;;;;6241611;28;20108;-78
2022/11/29 05:55:23;;;;;;;61.67;28.15;;;;;;;;;;6238552;28;20028;-78
2022/11/29 05:58:42;;;;;;;58.83;26.92;;;;;;;;;;6243784;28;20025;-78
2022/11/29 06:01:45;;;;;;;61.92;28.48;;;;;;;;;;6244415;28;20497;-78
2022/11/29 06:05:08;;;;;;;58.33;27.90;;;;;;;;;;6245150;28;20477;-78
2022/11/29 06:08:11;;;;;;;61.22;28.88;;;;;;;;;;6246006;28;20140;-79
2022/11/29 06:11:18;;;;;;;57.05;27.30;;;;;;;;;;6244742;28;20098;-78
2022/11/29 06:14:37;;;;;;;68.15;31.10;;;;;;;;;;6240329;28;20030;-79
2022/11/29 06:17:54;;;;;;;68.18;30.20;;;;;;;;;;6244484;28;20116;-77
2022/11/29 06:21:11;;;;;;;60.85;27.75;;;;;;;;;;6245812;28;20018;-76
2022/11/29 06:24:31;;;;;;;56.35;27.08;;;;;;;;;;6250429;28;20100;-77
2022/11/29 06:27:31;;;;;;;139.95;51.95;;;;;;;;;;6245379;28;20482;-75
2022/11/29 06:30:43;;;;;;;68.13;32.20;;;;;;;;;;6246732;28;20032;-77
2022/11/29 06:33:55;;;;;;;56.88;26.48;;;;;;;;;;6242012;28;20029;-77
2022/11/29 06:37:04;;;;;;;56.55;27.40;;;;;;;;;;6251422;28;20036;-78
2022/11/29 06:40:08;;;;;;;62.92;28.23;;;;;;;;;;6245715;28;20091;-77
2022/11/29 06:43:08;;;;;;;63.58;28.83;;;;;;;;;;6246726;28;20040;-79
2022/11/29 06:46:12;;;;;;;67.60;27.03;;;;;;;;;;6247134;28;20014;-77
2022/11/29 06:49:18;;;;;;;58.92;29.55;;;;;;;;;;6246308;28;20024;-76
2022/11/29 06:52:25;;;;;;;60.72;27.20;;;;;;;;;;6244965;28;20024;-77
2022/11/29 06:55:31;;;;;;;61.85;28.50;;;;;;;;;;6242369;28;20021;-77
2022/11/29 06:58:55;;;;;;;59.97;27.70;;;;;;;;;;6248610;28;20021;-77
2022/11/29 07:02:00;;;;;;;54.97;24.75;;;;;;;;;;6245965;28;20053;-77
2022/11/29 07:05:19;;;;;;;61.70;28.98;;;;;;;;;;6243229;28;20433;-77
2022/11/29 07:08:21;;;;;;;55.88;28.58;;;;;;;;;;6241392;28;20044;-77
2022/11/29 07:11:21;;;;;;;54.67;25.42;;;;;;;;;;6225608;28;20032;-78
2022/11/29 07:14:22;;;;;;;56.83;26.57;;;;;;;;;;6245869;28;20489;-78
2022/11/29 07:17:26;;;;;;;59.63;25.17;;;;;;;;;;6234561;28;20009;-78
2022/11/29 07:20:50;;;;;;;51.35;25.60;;;;;;;;;;6244512;28;20021;-78
2022/11/29 07:23:56;;;;;;;54.92;26.30;;;;;;;;;;6242311;28;20029;-78
2022/11/29 07:26:57;;;;;;;56.17;31.73;;;;;;;;;;6245563;28;20013;-79
2022/11/29 07:30:09;;;;;;;52.20;27.97;;;;;;;;;;6241439;28;20402;-79
2022/11/29 07:33:09;;;;;;;47.75;25.67;;;;;;;;;;6244627;28;20022;-79
2022/11/29 07:36:16;;;;;;;52.50;23.90;;;;;;;;;;6246542;28;20076;-79
2022/11/29 07:39:23;;;;;;;47.88;25.67;;;;;;;;;;6234449;28;20028;-78
2022/11/29 07:42:34;;;;;;;46.28;25.67;;;;;;;;;;6244049;28;20024;-78
2022/11/29 07:45:37;;;;;;;43.30;23.77;;;;;;;;;;6243542;28;20073;-77
2022/11/29 07:48:39;;;;;;;43.15;24.38;;;;;;;;;;6241304;28;20041;-77
2022/11/29 07:51:39;;;;;;;44.75;23.13;;;;;;;;;;6239648;28;20076;-78
2022/11/29 07:54:39;;;;;;;43.23;24.53;;;;;;;;;;6242408;28;20092;-79
2022/11/29 07:57:39;;;;;;;39.60;23.07;;;;;;;;;;6235294;28;20393;-79
2022/11/29 08:00:41;;;;;;;48.67;22.33;;;;;;;;;;6247339;28;20041;-80
2022/11/29 08:03:41;;;;;;;41.22;21.33;;;;;;;;;;6248847;28;20053;-81
2022/11/29 08:06:41;;;;;;;40.90;22.83;;;;;;;;;;6244465;28;20025;-80
2022/11/29 08:09:41;;;;;;;42.57;23.27;;;;;;;;;;6242176;28;20422;-81
2022/11/29 08:12:43;;;;;;;41.30;23.65;;;;;;;;;;6247883;28;20084;-80
2022/11/29 08:15:44;;;;;;;42.88;22.33;;;;;;;;;;6248558;28;20462;-80
2022/11/29 08:18:44;;;;;;;44.60;24.83;;;;;;;;;;6252503;28;20068;-80
2022/11/29 08:21:46;;;;;;;41.73;24.17;;;;;;;;;;6243114;28;20056;-79
2022/11/29 08:24:46;;;;;;;41.20;23.00;;;;;;;;;;6244426;28;20037;-79
2022/11/29 08:27:47;;;;;;;44.33;23.47;;;;;;;;;;6243867;28;20026;-79
2022/11/29 08:30:58;;;;;;;42.20;24.10;;;;;;;;;;6245555;28;20025;-81
2022/11/29 08:33:58;;;;;;;41.30;20.88;;;;;;;;;;6247685;28;20029;-80
2022/11/29 08:36:58;;;;;;;36.00;19.52;;;;;;;;;;6247872;28;20378;-80
2022/11/29 08:39:58;;;;;;;38.07;20.03;;;;;;;;;;6239467;28;20163;-80
2022/11/29 08:42:59;;;;;;;39.80;21.00;;;;;;;;;;6244262;28;20013;-79
2022/11/29 08:45:59;;;;;;;38.45;22.52;;;;;;;;;;6244281;28;20018;-80
2022/11/29 08:48:59;;;;;;;38.67;21.13;;;;;;;;;;6240243;28;20021;-82
2022/11/29 08:55:19;;;;;;;35.75;22.13;;;;;;;;;;6246610;28;20017;-81
2022/11/29 08:58:20;;;;;;;37.00;20.67;;;;;;;;;;6234827;28;20029;-80
2022/11/29 09:01:20;;;;;;;34.57;21.60;;;;;;;;;;6240933;28;20048;-80
2022/11/29 09:04:20;;;;;;;33.05;20.52;;;;;;;;;;6245285;28;20018;-79
2022/11/29 09:07:20;;;;;;;34.83;21.20;;;;;;;;;;6244794;28;20268;-79
2022/11/29 09:10:21;;;;;;;37.50;20.57;;;;;;;;;;6246662;28;20410;-79
2022/11/29 09:13:21;;;;;;;29.80;19.48;;;;;;;;;;6227617;28;20029;-79
2022/11/29 09:16:24;;;;;;;36.40;23.55;;;;;;;;;;6246678;28;20029;-79
2022/11/29 09:19:24;;;;;;;37.10;21.58;;;;;;;;;;6234484;28;20033;-79
2022/11/29 09:22:24;;;;;;;36.58;23.52;;;;;;;;;;6244337;28;20025;-79
2022/11/29 09:25:24;;;;;;;39.83;21.83;;;;;;;;;;6232980;28;20018;-78
2022/11/29 09:28:25;;;;;;;34.53;22.03;;;;;;;;;;6244663;28;20056;-77
2022/11/29 09:31:26;;;;;;;37.57;22.50;;;;;;;;;;6242968;28;20494;-77
2022/11/29 09:34:26;;;;;;;36.63;22.13;;;;;;;;;;6238870;28;20385;-77
2022/11/29 09:37:27;;;;;;;41.67;23.73;;;;;;;;;;6242606;28;20079;-76
2022/11/29 09:40:32;;;;;;;42.80;26.73;;;;;;;;;;6241179;28;20112;-76
2022/11/29 09:43:32;;;;;;;43.78;25.42;;;;;;;;;;6239394;28;20380;-76
2022/11/29 09:46:48;;;;;;;39.13;23.30;;;;;;;;;;6238689;28;20028;-77
2022/11/29 09:49:48;;;;;;;36.45;22.40;;;;;;;;;;6236413;28;20091;-77
2022/11/29 09:53:00;;;;;;;38.43;23.43;;;;;;;;;;6241364;28;20010;-77
2022/11/29 09:56:00;;;;;;;41.17;23.95;;;;;;;;;;6237538;28;20025;-77
2022/11/29 09:59:03;;;;;;;35.63;23.20;;;;;;;;;;6241516;28;20028;-77
2022/11/29 10:02:15;;;;;;;39.13;23.48;;;;;;;;;;6236440;28;20098;-77
2022/11/29 10:05:27;;;;;;;42.15;24.77;;;;;;;;;;6236966;28;20517;-77
2022/11/29 10:08:31;;;;;;;41.08;23.45;;;;;;;;;;6239922;28;20280;-77
2022/11/29 10:11:34;;;;;;;40.85;25.02;;;;;;;;;;6241906;28;20026;-77
2022/11/29 10:14:40;;;;;;;36.55;24.67;;;;;;;;;;6241791;28;20025;-76
2022/11/29 10:17:43;;;;;;;40.78;24.80;;;;;;;;;;6242944;28;20036;-76
2022/11/29 10:20:45;;;;;;;38.53;24.05;;;;;;;;;;6243550;28;20281;-76
2022/11/29 10:23:47;;;;;;;38.53;23.95;;;;;;;;;;6241586;28;20120;-76
2022/11/29 10:26:47;;;;;;;40.65;24.45;;;;;;;;;;6241100;28;20064;-75
2022/11/29 10:29:50;;;;;;;48.20;27.00;;;;;;;;;;6243105;28;20061;-75
2022/11/29 10:32:54;;;;;;;41.58;22.48;;;;;;;;;;6241943;28;20385;-76
2022/11/29 10:36:03;;;;;;;40.78;23.70;;;;;;;;;;6242981;28;20018;-76
2022/11/29 10:39:05;;;;;;;38.72;23.33;;;;;;;;;;6237789;28;20499;-76
2022/11/29 10:42:47;;;;;;;39.92;23.60;;;;;;;;;;6242126;28;20025;-76
2022/11/29 10:45:49;;;;;;;37.15;23.50;;;;;;;;;;6241803;28;20057;-76
2022/11/29 10:48:49;;;;;;;36.15;21.67;;;;;;;;;;6231444;28;20506;-75
2022/11/29 10:51:49;;;;;;;38.43;22.90;;;;;;;;;;6235751;28;20034;-75
2022/11/29 10:54:52;;;;;;;36.97;21.67;;;;;;;;;;6239280;28;20022;-75
2022/11/29 10:58:08;;;;;;;36.47;20.58;;;;;;;;;;6239100;28;20036;-75
2022/11/29 11:01:12;;;;;;;36.22;22.20;;;;;;;;;;6242512;28;20045;-75
2022/11/29 11:04:21;;;;;;;41.22;22.60;;;;;;;;;;6240972;28;20044;-75
2022/11/29 11:07:33;;;;;;;38.00;22.50;;;;;;;;;;6245655;28;20470;-75
2022/11/29 11:10:34;;;;;;;33.42;21.13;;;;;;;;;;6244088;28;20112;-75
2022/11/29 11:13:35;;;;;;;39.77;22.00;;;;;;;;;;6245994;28;20123;-75
2022/11/29 11:16:35;;;;;;;36.70;21.70;;;;;;;;;;6246691;28;20025;-75
2022/11/29 11:19:35;;;;;;;34.38;20.92;;;;;;;;;;6240405;28;20170;-75
2022/11/29 11:22:38;;;;;;;37.53;21.97;;;;;;;;;;6245254;28;20044;-76
2022/11/29 11:25:39;;;;;;;34.15;20.70;;;;;;;;;;6242755;28;20028;-74
2022/11/29 11:28:45;;;;;;;34.83;21.67;;;;;;;;;;6238233;28;20542;-74
2022/11/29 11:31:51;;;;;;;36.72;21.48;;;;;;;;;;6244248;28;20465;-74
2022/11/29 11:34:54;;;;;;;31.05;19.55;;;;;;;;;;6246204;28;20055;-76
2022/11/29 11:37:55;;;;;;;35.45;20.80;;;;;;;;;;6243020;28;20025;-75
2022/11/29 11:41:03;;;;;;;33.50;19.77;;;;;;;;;;6240074;28;20543;-75
2022/11/29 11:44:03;;;;;;;35.10;20.90;;;;;;;;;;6245147;28;20030;-74
2022/11/29 11:47:04;;;;;;;36.20;20.20;;;;;;;;;;6245796;28;20052;-74
2022/11/29 11:50:06;;;;;;;35.65;20.80;;;;;;;;;;6242708;28;20083;-74
2022/11/29 11:53:06;;;;;;;;;;;;;;;;;;6242765;28;20034;-74
2022/11/29 11:56:08;;;;;;;33.80;20.90;;;;;;;;;;6241727;28;19939;-74
2022/11/29 11:59:15;;;;;;;28.67;18.00;;;;;;;;;;6245964;28;20025;-74
2022/11/29 12:02:48;;;;;;;35.35;19.83;;;;;;;;;;6245884;28;20034;-74
2022/11/29 12:05:50;;;;;;;33.17;22.13;;;;;;;;;;6220378;28;20470;-74
2022/11/29 12:08:50;;;;;;;;;;;;;;;;;;6240010;28;20013;-74
2022/11/29 12:12:02;;;;;;;41.53;21.88;;;;;;;;;;6240777;28;19909;-74
2022/11/29 12:15:15;;;;;;;40.95;22.40;;;;;;;;;;6239368;28;20112;-74
2022/11/29 12:18:28;;;;;;;40.70;23.67;;;;;;;;;;6243543;28;20041;-74
2022/11/29 12:21:32;;;;;;;38.72;21.80;;;;;;;;;;6234709;28;20701;-74
2022/11/29 12:24:44;;;;;;;39.35;21.25;;;;;;;;;;6243461;28;20013;-74
2022/11/29 12:27:44;;;;;;;39.90;21.20;;;;;;;;;;6236147;28;20017;-74
2022/11/29 12:30:53;;;;;;;33.67;18.95;;;;;;;;;;6243094;28;20083;-75
2022/11/29 12:34:02;;;;;;;39.40;21.95;;;;;;;;;;6238929;28;20026;-75
2022/11/29 12:37:21;;;;;;;43.03;19.27;;;;;;;;;;6241698;28;20026;-74
2022/11/29 12:40:28;;;;;;;40.95;22.55;;;;;;;;;;6244004;28;20089;-74
2022/11/29 12:43:34;;;;;;;35.72;19.42;;;;;;;;;;6244770;28;20025;-74
2022/11/29 12:46:34;;;;;;;35.03;20.33;;;;;;;;;;6238158;28;20090;-74
2022/11/29 12:49:44;;;;;;;40.47;21.47;;;;;;;;;;6242035;28;20470;-74
2022/11/29 12:52:44;;;;;;;44.10;21.40;;;;;;;;;;6239485;28;20402;-74
2022/11/29 12:56:03;;;;;;;35.40;20.77;;;;;;;;;;6241559;28;20028;-74
2022/11/29 12:59:21;;;;;;;36.17;19.35;;;;;;;;;;6244081;28;20052;-74
2022/11/29 13:02:40;;;;;;;32.60;20.27;;;;;;;;;;6239387;28;20116;-74
2022/11/29 13:05:50;;;;;;;41.17;22.90;;;;;;;;;;6241226;28;20029;-74
2022/11/29 13:08:53;;;;;;;33.10;19.30;;;;;;;;;;6236254;28;20396;-74
2022/11/29 13:12:05;;;;;;;38.85;20.35;;;;;;;;;;6233381;28;20436;-75
2022/11/29 13:15:09;;;;;;;36.80;21.70;;;;;;;;;;6239825;28;20029;-74
2022/11/29 13:18:18;;;;;;;36.20;19.38;;;;;;;;;;6242361;28;20049;-75
2022/11/29 13:21:21;;;;;;;34.47;19.33;;;;;;;;;;6240151;28;20035;-75
2022/11/29 13:24:24;;;;;;;42.17;20.10;;;;;;;;;;6242582;28;20018;-74
2022/11/29 13:27:30;;;;;;;39.25;20.08;;;;;;;;;;6237833;28;20479;-74
2022/11/29 13:30:32;;;;;;;31.05;17.88;;;;;;;;;;6235588;28;20034;-75
2022/11/29 13:33:32;;;;;;;;;;;;;;;;;;6242173;28;20021;-74
2022/11/29 13:36:41;;;;;;;36.38;18.38;;;;;;;;;;6237793;28;19909;-73
2022/11/29 13:39:44;;;;;;;36.85;20.60;;;;;;;;;;6232966;28;20026;-73
2022/11/29 13:43:03;;;;;;;35.92;20.13;;;;;;;;;;6238815;28;20362;-74
2022/11/29 13:46:06;;;;;;;34.10;18.33;;;;;;;;;;6242360;28;20017;-74
2022/11/29 13:49:18;;;;;;;35.40;21.08;;;;;;;;;;6244652;28;20083;-74
2022/11/29 13:52:37;;;;;;;31.90;17.95;;;;;;;;;;6241356;28;20029;-75
2022/11/29 13:55:43;;;;;;;33.30;18.98;;;;;;;;;;6237010;28;20449;-74
2022/11/29 13:58:43;;;;;;;30.60;18.73;;;;;;;;;;6237239;28;20525;-74
2022/11/29 14:01:44;;;;;;;31.45;17.52;;;;;;;;;;6238972;28;20069;-75
2022/11/29 14:04:44;;;;;;;32.50;19.60;;;;;;;;;;6232070;28;20459;-74
2022/11/29 14:08:03;;;;;;;33.90;17.33;;;;;;;;;;6241849;28;20025;-75
2022/11/29 14:11:12;;;;;;;39.03;20.23;;;;;;;;;;6240830;28;20051;-74
2022/11/29 14:14:12;;;;;;;38.17;22.55;;;;;;;;;;6238803;28;20041;-74
2022/11/29 14:17:32;;;;;;;40.80;21.37;;;;;;;;;;6240787;28;20063;-75
2022/11/29 14:20:39;;;;;;;40.55;21.58;;;;;;;;;;6240499;28;20551;-74
2022/11/29 14:23:41;;;;;;;33.55;19.98;;;;;;;;;;6237549;28;20044;-73
2022/11/29 14:26:41;;;;;;;41.83;22.88;;;;;;;;;;6236175;28;20017;-74
2022/11/29 14:29:54;;;;;;;41.77;20.40;;;;;;;;;;6230605;28;20071;-74
2022/11/29 14:33:17;;;;;;;42.28;21.75;;;;;;;;;;6242868;28;20029;-75
2022/11/29 14:36:19;;;;;;;37.95;21.35;;;;;;;;;;6227564;28;20096;-75
2022/11/29 14:39:23;;;;;;;53.60;24.73;;;;;;;;;;6242669;28;20033;-74
2022/11/29 14:42:24;;;;;;;55.25;26.05;;;;;;;;;;6243842;28;20132;-75
2022/11/29 14:45:24;;;;;;;46.90;24.10;;;;;;;;;;6245646;28;20018;-75
2022/11/29 14:48:26;;;;;;;48.60;25.93;;;;;;;;;;6247459;28;20025;-75
2022/11/29 14:51:31;;;;;;;46.17;25.27;;;;;;;;;;6246531;28;20465;-75
2022/11/29 14:54:31;;;;;;;49.13;26.10;;;;;;;;;;6242795;28;20805;-75
2022/11/29 14:57:52;;;;;;;46.20;22.27;;;;;;;;;;6258550;28;20029;-75
2022/11/29 15:00:54;;;;;;;41.72;22.75;;;;;;;;;;6247047;28;20541;-75
2022/11/29 15:03:54;;;;;;;41.08;23.88;;;;;;;;;;6244696;28;20028;-75
2022/11/29 15:06:55;;;;;;;45.47;24.43;;;;;;;;;;6244080;28;20040;-75
2022/11/29 15:09:58;;;;;;;47.40;22.63;;;;;;;;;;6242554;28;20156;-75
2022/11/29 15:12:59;;;;;;;39.38;21.45;;;;;;;;;;6244147;28;20441;-74
2022/11/29 15:16:02;;;;;;;47.70;24.90;;;;;;;;;;6241195;28;20071;-74
2022/11/29 15:19:34;;;;;;;48.35;23.95;;;;;;;;;;6244043;28;20424;-75
2022/11/29 15:22:35;;;;;;;;;;;;;;;;;;6230188;28;20397;-75
2022/11/29 15:25:35;;;;;;;44.33;23.20;;;;;;;;;;6244359;28;20364;-75
2022/11/29 15:28:35;;;;;;;48.50;26.47;;;;;;;;;;6243991;28;20061;-75
2022/11/29 15:31:36;;;;;;;50.17;27.15;;;;;;;;;;6245143;28;20018;-74
2022/11/29 15:34:38;;;;;;;45.57;25.07;;;;;;;;;;6242832;28;20809;-74
2022/11/29 15:37:41;;;;;;;54.60;26.55;;;;;;;;;;6242890;28;20021;-75
2022/11/29 15:40:51;;;;;;;60.05;28.63;;;;;;;;;;6241803;28;20765;-74
2022/11/29 15:43:53;;;;;;;53.92;28.88;;;;;;;;;;6245596;28;20151;-74
2022/11/29 15:46:53;;;;;;;;;;;;;;;;;;6240711;28;20025;-74
2022/11/29 15:49:53;;;;;;;49.42;27.60;;;;;;;;;;6236274;28;19909;-74
2022/11/29 15:52:55;;;;;;;49.33;26.70;;;;;;;;;;6243974;28;20143;-75
2022/11/29 15:55:56;;;;;;;49.78;27.13;;;;;;;;;;6243131;28;20449;-75
2022/11/29 15:58:59;;;;;;;52.55;28.27;;;;;;;;;;6241786;28;20021;-75
2022/11/29 16:02:13;;;;;;;57.05;28.45;;;;;;;;;;6241120;28;20088;-74
2022/11/29 16:05:20;;;;;;;56.45;28.88;;;;;;;;;;6238109;28;20091;-74
2022/11/29 16:08:21;;;;;;;54.65;26.80;;;;;;;;;;6243550;28;20280;-74
2022/11/29 16:11:23;;;;;;;62.57;30.10;;;;;;;;;;6242195;28;20025;-74
2022/11/29 16:14:24;;;;;;;57.55;28.77;;;;;;;;;;6244088;28;20033;-74
2022/11/29 16:17:32;;;;;;;54.80;28.73;;;;;;;;;;6243527;28;20025;-74
2022/11/29 16:20:34;;;;;;;62.95;27.25;;;;;;;;;;6236616;28;20029;-74
2022/11/29 16:23:40;;;;;;;66.38;28.73;;;;;;;;;;6241918;28;20017;-74
2022/11/29 16:26:42;;;;;;;54.80;31.00;;;;;;;;;;6241422;28;20017;-74
2022/11/29 16:29:43;;;;;;;57.85;30.65;;;;;;;;;;6240882;28;20377;-74
2022/11/29 16:32:46;;;;;;;64.90;31.95;;;;;;;;;;6237834;28;20108;-74
2022/11/29 16:35:46;;;;;;;68.38;32.80;;;;;;;;;;6238841;28;20025;-73
2022/11/29 16:38:48;;;;;;;58.80;31.30;;;;;;;;;;6242198;28;20044;-75
2022/11/29 16:42:13;;;;;;;58.10;31.90;;;;;;;;;;6240489;28;20025;-74
2022/11/29 16:45:33;;;;;;;69.90;32.55;;;;;;;;;;6242389;28;20032;-73
2022/11/29 16:48:37;;;;;;;60.53;30.10;;;;;;;;;;6234794;28;20025;-73
2022/11/29 16:51:46;;;;;;;64.80;31.15;;;;;;;;;;6237157;28;20029;-73
2022/11/29 16:54:47;;;;;;;61.20;30.17;;;;;;;;;;6241814;28;20120;-73
2022/11/29 16:57:47;;;;;;;65.37;34.20;;;;;;;;;;6241332;28;20013;-73
2022/11/29 17:00:48;;;;;;;69.63;36.67;;;;;;;;;;6241242;28;20037;-73
2022/11/29 17:03:48;;;;;;;68.90;34.60;;;;;;;;;;6245021;28;20025;-73
2022/11/29 17:06:48;;;;;;;74.40;35.03;;;;;;;;;;6244186;28;20347;-73
2022/11/29 17:09:48;;;;;;;75.60;37.10;;;;;;;;;;6240965;28;20072;-73
2022/11/29 17:12:49;;;;;;;88.60;38.60;;;;;;;;;;6234011;28;20025;-72
2022/11/29 17:15:49;;;;;;;70.10;34.17;;;;;;;;;;6235324;28;20036;-73
2022/11/29 17:18:51;;;;;;;77.13;38.60;;;;;;;;;;6239924;28;20021;-72
2022/11/29 17:21:51;;;;;;;83.95;39.55;;;;;;;;;;6234334;28;20572;-73
2022/11/29 17:24:52;;;;;;;77.53;39.43;;;;;;;;;;6240003;28;20024;-73
2022/11/29 17:27:52;;;;;;;80.47;39.03;;;;;;;;;;6242244;28;20009;-73
2022/11/29 17:30:52;;;;;;;76.57;37.83;;;;;;;;;;6238547;28;20433;-73
2022/11/29 17:33:53;;;;;;;74.87;37.90;;;;;;;;;;6245102;28;20032;-73
2022/11/29 17:36:53;;;;;;;82.07;39.67;;;;;;;;;;6242766;28;20031;-74
2022/11/29 17:39:53;;;;;;;210.27;82.78;;;;;;;;;;6245071;28;20059;-73
2022/11/29 17:42:53;;;;;;;236.68;103.45;;;;;;;;;;6240743;28;20412;-74
2022/11/29 17:45:53;;;;;;;240.80;102.77;;;;;;;;;;6242863;28;20022;-75
2022/11/29 17:48:55;;;;;;;191.20;87.65;;;;;;;;;;6241575;28;20020;-74
2022/11/29 17:51:55;;;;;;;218.07;93.40;;;;;;;;;;6243365;28;20044;-75
2022/11/29 17:54:55;;;;;;;186.47;91.47;;;;;;;;;;6242107;28;20025;-75
2022/11/29 17:57:56;;;;;;;185.83;97.73;;;;;;;;;;6243767;28;20397;-73
2022/11/29 18:01:01;;;;;;;124.57;66.30;;;;;;;;;;6244316;28;21326;-74
2022/11/29 18:04:04;;;;;;;92.70;46.90;;;;;;;;;;6243373;28;20309;-75
2022/11/29 18:07:04;;;;;;;86.18;43.25;;;;;;;;;;6243771;28;20049;-75